General Aviation Weather

Text Reports

Enter one or more of the following location identifiers separated by a space:

Zip Code, Four-Character ICAO or Three-Character IATA airport codes.

METAR - Aviation Routine Weather Report
KCWI - Clinton, Iowa
Updated at 7:55 PM GMT on February 28, 2015 (1:55 PM CST):
METAR KCWI 281955Z AUTO 13005KT 10SM CLR M08/M16 A3059 RMK AO1
TAF - Terminal Area Forecast
KCWI - Clinton, Iowa
Updated at 7:55 PM GMT on February 28, 2015 (1:55 PM CST):
No TAF is currently available for this location.
Decoded:
No decoded TAF is available.
PIREP - Pilot Weather Report
KCWI - Clinton, Iowa
Updated at 7:55 PM GMT on February 28, 2015 (1:55 PM CST):
No PIREP is currently available for this location.
AIRMET - Airmens Meteorological Information
KCWI - Clinton, Iowa
Updated at 7:55 PM GMT on February 28, 2015 (1:55 PM CST):
No AIRMET is currently available for this location.
SIGMET - Significant Meteorological Information
KCWI - Clinton, Iowa
Updated at 7:55 PM GMT on February 28, 2015 (1:55 PM CST):
No SIGMET is currently available for this location.
NOTAM - Notice to Airmen
KCWI - Clinton, Iowa
Updated at 7:55 PM GMT on February 28, 2015 (1:55 PM CST):
No NOTAM is currently available for this location.
Forecast Area
KCWI - Clinton, Iowa
Updated at 7:55 PM GMT on February 28, 2015 (1:55 PM CST):
No NOTAM is currently available for this location.
Aviation Weather Maps